This is the latest recevied weather packets stored in our database for station/object KB1QVF. If no packets are shown the sender has not sent any weather packets the latest 10 day(s).
| Time | Temp. | Humidity | Pressure | Rain* | Wind** | Luminosity | Snow |
|---|---|---|---|---|---|---|---|
| 1777498966 | 17.22° C | 55% | 1013.8 hPa | 0 mm | - | 118 W/m² | - |
| 1777498662 | 17.78° C | 53% | 1014 hPa | 0 mm | - | 149 W/m² | - |
| 1777498358 | 18.33° C | 52% | 1014.2 hPa | 0 mm | - | 211 W/m² | - |
| 1777498056 | 18.33° C | 51% | 1014.4 hPa | 0 mm | - | 179 W/m² | - |
| 1777497752 | 20° C | 47% | 1014.1 hPa | 0 mm | - | 197 W/m² | - |
| 1777497449 | 18.33° C | 50% | 1014.2 hPa | 0 mm | - | 257 W/m² | - |
| 1777497145 | 18.33° C | 51% | 1014.1 hPa | 0 mm | - | 357 W/m² | - |
| 1777496842 | 17.78° C | 53% | 1014.4 hPa | 0 mm | - | 351 W/m² | - |
| 1777496539 | 17.22° C | 52% | 1014.3 hPa | 0 mm | - | 382 W/m² | - |
| 1777496235 | 17.78° C | 50% | 1014.5 hPa | 0 mm | - | 404 W/m² | - |
| 1777495931 | 16.67° C | 54% | 1014.4 hPa | 0 mm | - | 323 W/m² | - |
| 1777495627 | 16.67° C | 54% | 1014.4 hPa | 0 mm | - | 261 W/m² | - |
| 1777495323 | 16.67° C | 52% | 1014.4 hPa | 0 mm | - | 257 W/m² | - |
| 1777495021 | 17.78° C | 49% | 1014.2 hPa | 0 mm | - | 324 W/m² | - |
| 1777494718 | 18.33° C | 52% | 1014.3 hPa | 0 mm | - | 426 W/m² | - |
| 1777494415 | 17.22° C | 50% | 1014.1 hPa | 0 mm | - | 294 W/m² | - |
| 1777494111 | 17.22° C | 49% | 1014.2 hPa | 0 mm | - | 247 W/m² | - |
| 1777493809 | 17.22° C | 47% | 1014.2 hPa | 0 mm | - | 238 W/m² | - |
| 1777493507 | 16.67° C | 47% | 1014.4 hPa | 0 mm | - | 275 W/m² | - |
| 1777493203 | 16.11° C | 53% | 1014.1 hPa | 0 mm | - | 302 W/m² | - |
| 1777492900 | 16.67° C | 49% | 1014.4 hPa | 0 mm | - | 286 W/m² | - |
| 1777492597 | 17.22° C | 49% | 1014.4 hPa | 0 mm | - | 252 W/m² | - |
| 1777492292 | 17.22° C | 45% | 1014.6 hPa | 0 mm | - | 255 W/m² | - |
| 1777491989 | 17.22° C | 48% | 1014.6 hPa | 0 mm | - | 280 W/m² | - |
| 1777491686 | 17.22° C | 47% | 1015 hPa | 0 mm | - | 306 W/m² | - |
* Rain latest hour (hover to see other rain measurements)
** Current wind speed in m/s (hover to see current wind gust speed)